Bilbao, España

7:19 PM CET en Octubre 31, 2014 (GMT +0100)
Campo Volantin | Change Station
CLOSE
Current Station
Estación meteorológica personal
Location: Bilbao, PAS VASCO
Altura: 200 ft
Estaciones meteorológicas cercanas

Alt 200 ft 43.27 °N, 2.93 °W | Updated 9 minutes ago

Clear
Despejado
71.1 ° F
Sensación térmica 76 ° F
N
5.0
Viento Variable Viento desde ENE
Gusts 8.0 mph

Hoy
Alta -- | Baja -- ° F
--% Posibilidad de precipitaciones
Ayer
Alta -- | Baja -- ° F
Precip. -- pul
7:45 AM 6:04 PM
Cuarto creciente, 57% visible
Presión 30.09 pul
Visibilidad -9999.0 Millas
Nubes
Índice de calor 76 ° F
Punto de rocío 56 ° F
Humedad 59%
Precipitaciones 0.00 pul
Espesor de la nieve No disponible.
UV No disponible.
Polen No disponible.
Calidad del aire No disponible.
Flu Activity No disponible.
METAR LEBB 311800Z 15003KT 100V220 CAVOK 22/13 Q1019 NOSIG

More Conditions Fewer Conditions

Presión 30.09 pul
Visibilidad -9999.0 Millas
Nubes
Índice de calor 76 ° F
Punto de rocío 56 ° F
Humedad 59%
Precipitaciones 0.00 pul
Espesor de la nieve No disponible.
UV No disponible.
Polen No disponible.
Calidad del aire No disponible.
Flu Activity No disponible.
METAR LEBB 311800Z 15003KT 100V220 CAVOK 22/13 Q1019 NOSIG

More Conditions Fewer Conditions

10-Day Weather Forecast

Almanac

Astronomía

Oct. 31, 2014 Salida Puesta
Hora real
Crepúsculo civil
Crepúsculo náutico
Crepúsculo astronómico
Luna
Horas de luz
Horas de luz
Tomorrow will be .
, % of the Moon is Illuminated

Extremos de hoy

Máximos del país Bajas del país

Community

WunderPhotos

Upload Photos

1,766,683 ¡fotos cargadas!

WunderBlogs® & News

Nearby

Calidad del aire

  Calidad del aire Índice AQ Contaminante
Not available.

Grosos de nieve

Estación Profundido Altura

Actividad de terremotos

Ciudad Distance Mag. Tiempo y dato
Magnitud mínima muestra es 2,5.

Temperaturas de aguas costeras

Lugar Temperatura

Estaciones meteorológicas cercanas